Главная страница
METAR-TAF:

METAR-TAF

Аэропорты :

Wings Field

Филадельфия / Blue Bell, Пенсильвания, США

широта: 40-08-15N, долгота: 075-15-54W, высота над уровнем моря: 92 м

Текущие метеонаблюдения

Эта сводка был подготовлена 20 минут назад, в 20:15 UTC
Ветер 13 Узел от западный с порывами до 21 Узел, изменяющийся между западный-юго-западный и северо-западный
Температура 13°C
Влажность 54%
Давление 1000 hPa
Видимость: 16.1 км
Сплошная облачность на высоте 4500 фута

METAR: KLOM 172015Z AUTO 28013G21KT 250V310 10SM OVC045 13/04 A2953 RMK AO2 T01310040

Время: 16:35 (20:35 UTC)


TAF: отсутствует

Метеонаблюдения и прогнозы для более 4000 аэропортов (сводки METAR и TAF).

Имеющиеся станции представлены на карте желтыми и красными точками.

Чтобы увидеть название станции, наведите на нее мышь.

Затем щелкните, чтобы увидеть метеонаблюдения и метеопрогнозы.

Управление картой: чтобы увеличить масштаб, щелкните зеленые кнопки с черным крестиком; чтобы уменьшить масштаб, щелкните зеленую кнопку с тире; для просмотра соседних карт щелкайте зеленые стрелки.


METAR-TAF: